sensor_id;sensor_type;location;lat;lon;timestamp;temperature;humidity
51215;DHT22;41093;47.444;19.134;2022-09-03T00:01:53;13.20;87.20
51215;DHT22;41093;47.444;19.134;2022-09-03T00:04:38;13.20;87.30
51215;DHT22;41093;47.444;19.134;2022-09-03T00:07:16;13.10;87.20
51215;DHT22;41093;47.444;19.134;2022-09-03T00:09:47;13.10;87.20
51215;DHT22;41093;47.444;19.134;2022-09-03T00:12:20;13.00;87.50
51215;DHT22;41093;47.444;19.134;2022-09-03T00:17:30;13.00;87.60
51215;DHT22;41093;47.444;19.134;2022-09-03T00:22:35;12.90;87.50
51215;DHT22;41093;47.444;19.134;2022-09-03T00:25:06;12.90;87.60
51215;DHT22;41093;47.444;19.134;2022-09-03T00:27:37;12.90;87.50
51215;DHT22;41093;47.444;19.134;2022-09-03T00:30:09;12.90;87.60
51215;DHT22;41093;47.444;19.134;2022-09-03T00:32:44;12.90;87.60
51215;DHT22;41093;47.444;19.134;2022-09-03T00:35:19;12.80;87.60
51215;DHT22;41093;47.444;19.134;2022-09-03T00:37:51;12.80;87.70
51215;DHT22;41093;47.444;19.134;2022-09-03T00:46:25;12.80;88.10
51215;DHT22;41093;47.444;19.134;2022-09-03T00:52:19;12.80;88.00
51215;DHT22;41093;47.444;19.134;2022-09-03T00:57:37;12.70;88.20
51215;DHT22;41093;47.444;19.134;2022-09-03T01:00:14;12.60;88.10
51215;DHT22;41093;47.444;19.134;2022-09-03T01:02:58;12.60;88.20
51215;DHT22;41093;47.444;19.134;2022-09-03T01:05:51;12.60;88.30
51215;DHT22;41093;47.444;19.134;2022-09-03T01:14:13;12.60;88.40
51215;DHT22;41093;47.444;19.134;2022-09-03T01:20:02;12.50;88.20
51215;DHT22;41093;47.444;19.134;2022-09-03T01:23:07;12.50;88.20
51215;DHT22;41093;47.444;19.134;2022-09-03T01:26:10;12.50;88.40
51215;DHT22;41093;47.444;19.134;2022-09-03T01:37:19;12.50;88.60
51215;DHT22;41093;47.444;19.134;2022-09-03T01:53:18;12.40;88.50
51215;DHT22;41093;47.444;19.134;2022-09-03T01:58:46;12.30;88.60
51215;DHT22;41093;47.444;19.134;2022-09-03T02:01:23;12.30;88.50
51215;DHT22;41093;47.444;19.134;2022-09-03T02:03:50;12.30;88.60
51215;DHT22;41093;47.444;19.134;2022-09-03T02:06:16;12.20;88.60
51215;DHT22;41093;47.444;19.134;2022-09-03T02:08:45;12.10;88.60
51215;DHT22;41093;47.444;19.134;2022-09-03T02:11:11;12.20;88.70
51215;DHT22;41093;47.444;19.134;2022-09-03T02:13:40;12.10;88.90
51215;DHT22;41093;47.444;19.134;2022-09-03T02:16:18;12.10;89.00
51215;DHT22;41093;47.444;19.134;2022-09-03T02:18:49;12.10;89.10
51215;DHT22;41093;47.444;19.134;2022-09-03T02:21:17;12.10;89.00
51215;DHT22;41093;47.444;19.134;2022-09-03T02:23:45;12.10;89.00
51215;DHT22;41093;47.444;19.134;2022-09-03T02:26:13;12.20;89.00
51215;DHT22;41093;47.444;19.134;2022-09-03T02:28:40;12.10;88.80
51215;DHT22;41093;47.444;19.134;2022-09-03T02:31:06;12.10;88.90
51215;DHT22;41093;47.444;19.134;2022-09-03T02:33:36;12.10;88.90
51215;DHT22;41093;47.444;19.134;2022-09-03T02:36:06;12.00;88.90
51215;DHT22;41093;47.444;19.134;2022-09-03T02:38:33;12.00;88.90
51215;DHT22;41093;47.444;19.134;2022-09-03T02:40:59;11.90;88.90
51215;DHT22;41093;47.444;19.134;2022-09-03T02:43:49;11.90;89.00
51215;DHT22;41093;47.444;19.134;2022-09-03T02:46:20;11.90;89.10
51215;DHT22;41093;47.444;19.134;2022-09-03T02:48:46;11.90;89.20
51215;DHT22;41093;47.444;19.134;2022-09-03T02:51:12;11.90;89.20
51215;DHT22;41093;47.444;19.134;2022-09-03T02:53:38;11.90;89.20
51215;DHT22;41093;47.444;19.134;2022-09-03T02:56:04;11.90;89.20
51215;DHT22;41093;47.444;19.134;2022-09-03T02:58:30;11.80;89.20
51215;DHT22;41093;47.444;19.134;2022-09-03T03:00:56;11.80;89.40
51215;DHT22;41093;47.444;19.134;2022-09-03T03:03:22;11.80;89.30
51215;DHT22;41093;47.444;19.134;2022-09-03T03:05:57;11.90;90.10
51215;DHT22;41093;47.444;19.134;2022-09-03T03:08:26;11.90;90.50
51215;DHT22;41093;47.444;19.134;2022-09-03T03:10:56;12.00;90.80
51215;DHT22;41093;47.444;19.134;2022-09-03T03:13:27;11.90;90.60
51215;DHT22;41093;47.444;19.134;2022-09-03T03:16:12;11.90;90.70
51215;DHT22;41093;47.444;19.134;2022-09-03T03:18:38;11.90;90.70
51215;DHT22;41093;47.444;19.134;2022-09-03T03:21:06;11.90;91.00
51215;DHT22;41093;47.444;19.134;2022-09-03T03:23:33;11.90;91.20
51215;DHT22;41093;47.444;19.134;2022-09-03T03:26:07;12.00;91.40
51215;DHT22;41093;47.444;19.134;2022-09-03T03:28:33;11.90;91.20
51215;DHT22;41093;47.444;19.134;2022-09-03T03:31:10;11.90;91.50
51215;DHT22;41093;47.444;19.134;2022-09-03T03:33:38;11.90;91.20
51215;DHT22;41093;47.444;19.134;2022-09-03T03:36:14;11.90;91.70
51215;DHT22;41093;47.444;19.134;2022-09-03T03:38:41;12.00;91.90
51215;DHT22;41093;47.444;19.134;2022-09-03T03:41:13;11.90;91.80
51215;DHT22;41093;47.444;19.134;2022-09-03T03:43:40;12.10;92.20
51215;DHT22;41093;47.444;19.134;2022-09-03T03:46:06;12.10;92.30
51215;DHT22;41093;47.444;19.134;2022-09-03T03:48:33;12.10;92.40
51215;DHT22;41093;47.444;19.134;2022-09-03T03:51:04;12.00;92.20
51215;DHT22;41093;47.444;19.134;2022-09-03T03:53:31;12.00;92.10
51215;DHT22;41093;47.444;19.134;2022-09-03T03:55:59;11.90;91.90
51215;DHT22;41093;47.444;19.134;2022-09-03T03:58:27;11.80;91.60
51215;DHT22;41093;47.444;19.134;2022-09-03T04:00:53;11.80;91.60
51215;DHT22;41093;47.444;19.134;2022-09-03T04:03:20;11.80;91.70
51215;DHT22;41093;47.444;19.134;2022-09-03T04:05:59;11.80;91.80
51215;DHT22;41093;47.444;19.134;2022-09-03T04:08:28;11.90;91.60
51215;DHT22;41093;47.444;19.134;2022-09-03T04:10:59;11.70;91.40
51215;DHT22;41093;47.444;19.134;2022-09-03T04:13:28;11.70;91.50
51215;DHT22;41093;47.444;19.134;2022-09-03T04:16:03;11.70;91.40
51215;DHT22;41093;47.444;19.134;2022-09-03T04:18:29;11.70;91.40
51215;DHT22;41093;47.444;19.134;2022-09-03T04:21:00;11.80;91.50
51215;DHT22;41093;47.444;19.134;2022-09-03T04:23:29;11.80;91.40
51215;DHT22;41093;47.444;19.134;2022-09-03T04:25:55;11.80;91.50
51215;DHT22;41093;47.444;19.134;2022-09-03T04:28:21;11.80;91.50
51215;DHT22;41093;47.444;19.134;2022-09-03T04:30:47;11.90;91.40
51215;DHT22;41093;47.444;19.134;2022-09-03T04:33:12;11.90;91.30
51215;DHT22;41093;47.444;19.134;2022-09-03T04:35:38;11.90;91.30
51215;DHT22;41093;47.444;19.134;2022-09-03T04:38:05;12.00;91.20
51215;DHT22;41093;47.444;19.134;2022-09-03T04:40:32;12.10;91.20
51215;DHT22;41093;47.444;19.134;2022-09-03T04:42:58;12.20;91.10
51215;DHT22;41093;47.444;19.134;2022-09-03T04:45:26;12.30;91.20
51215;DHT22;41093;47.444;19.134;2022-09-03T04:48:03;12.40;90.90
51215;DHT22;41093;47.444;19.134;2022-09-03T04:50:31;12.40;90.80
51215;DHT22;41093;47.444;19.134;2022-09-03T04:53:02;12.50;90.40
51215;DHT22;41093;47.444;19.134;2022-09-03T04:55:36;12.60;90.10
51215;DHT22;41093;47.444;19.134;2022-09-03T04:58:03;12.80;89.80
51215;DHT22;41093;47.444;19.134;2022-09-03T05:00:29;12.90;89.40
51215;DHT22;41093;47.444;19.134;2022-09-03T05:02:55;13.10;88.80
51215;DHT22;41093;47.444;19.134;2022-09-03T05:05:24;13.60;87.60
51215;DHT22;41093;47.444;19.134;2022-09-03T05:07:50;14.20;86.30
51215;DHT22;41093;47.444;19.134;2022-09-03T05:10:15;15.10;83.50
51215;DHT22;41093;47.444;19.134;2022-09-03T05:12:57;16.70;77.50
51215;DHT22;41093;47.444;19.134;2022-09-03T05:15:23;18.30;71.50
51215;DHT22;41093;47.444;19.134;2022-09-03T05:17:49;17.90;71.30
51215;DHT22;41093;47.444;19.134;2022-09-03T05:20:18;18.60;69.70
51215;DHT22;41093;47.444;19.134;2022-09-03T05:22:44;21.20;59.90
51215;DHT22;41093;47.444;19.134;2022-09-03T05:25:10;22.80;54.30
51215;DHT22;41093;47.444;19.134;2022-09-03T05:27:36;23.40;51.70
51215;DHT22;41093;47.444;19.134;2022-09-03T05:30:02;24.30;49.40
51215;DHT22;41093;47.444;19.134;2022-09-03T05:32:30;24.60;48.20
51215;DHT22;41093;47.444;19.134;2022-09-03T05:34:55;26.00;43.80
51215;DHT22;41093;47.444;19.134;2022-09-03T05:37:21;27.10;41.70
51215;DHT22;41093;47.444;19.134;2022-09-03T05:39:48;28.20;38.90
51215;DHT22;41093;47.444;19.134;2022-09-03T05:42:13;28.90;38.40
51215;DHT22;41093;47.444;19.134;2022-09-03T05:44:39;29.80;37.30
51215;DHT22;41093;47.444;19.134;2022-09-03T05:47:05;30.20;35.70
51215;DHT22;41093;47.444;19.134;2022-09-03T05:49:31;29.90;35.30
51215;DHT22;41093;47.444;19.134;2022-09-03T05:51:57;30.30;36.40
51215;DHT22;41093;47.444;19.134;2022-09-03T05:54:24;30.40;35.20
51215;DHT22;41093;47.444;19.134;2022-09-03T05:56:50;31.20;33.90
51215;DHT22;41093;47.444;19.134;2022-09-03T05:59:16;31.90;32.50
51215;DHT22;41093;47.444;19.134;2022-09-03T06:01:43;32.20;33.30
51215;DHT22;41093;47.444;19.134;2022-09-03T06:04:14;32.40;32.80
51215;DHT22;41093;47.444;19.134;2022-09-03T06:06:42;32.70;31.40
51215;DHT22;41093;47.444;19.134;2022-09-03T06:09:19;33.40;30.10
51215;DHT22;41093;47.444;19.134;2022-09-03T06:11:46;33.40;31.40
51215;DHT22;41093;47.444;19.134;2022-09-03T06:14:14;33.50;30.00
51215;DHT22;41093;47.444;19.134;2022-09-03T06:16:42;33.90;30.00
51215;DHT22;41093;47.444;19.134;2022-09-03T06:19:09;33.70;30.10
51215;DHT22;41093;47.444;19.134;2022-09-03T06:21:36;34.20;29.00
51215;DHT22;41093;47.444;19.134;2022-09-03T06:24:05;33.40;30.10
51215;DHT22;41093;47.444;19.134;2022-09-03T06:26:30;32.20;31.40
51215;DHT22;41093;47.444;19.134;2022-09-03T06:28:57;30.60;33.60
51215;DHT22;41093;47.444;19.134;2022-09-03T06:31:23;29.50;35.10
51215;DHT22;41093;47.444;19.134;2022-09-03T06:33:49;29.10;38.00
51215;DHT22;41093;47.444;19.134;2022-09-03T06:36:17;29.20;36.80
51215;DHT22;41093;47.444;19.134;2022-09-03T06:38:43;29.80;36.00
51215;DHT22;41093;47.444;19.134;2022-09-03T06:41:14;30.30;34.50
51215;DHT22;41093;47.444;19.134;2022-09-03T06:43:51;30.70;34.40
51215;DHT22;41093;47.444;19.134;2022-09-03T06:46:22;32.50;31.20
51215;DHT22;41093;47.444;19.134;2022-09-03T06:48:48;33.90;29.60
51215;DHT22;41093;47.444;19.134;2022-09-03T06:51:20;34.40;28.40
51215;DHT22;41093;47.444;19.134;2022-09-03T06:53:48;35.00;27.00
51215;DHT22;41093;47.444;19.134;2022-09-03T06:56:20;35.00;27.10
51215;DHT22;41093;47.444;19.134;2022-09-03T06:58:58;35.80;26.40
51215;DHT22;41093;47.444;19.134;2022-09-03T07:01:28;36.80;25.60
51215;DHT22;41093;47.444;19.134;2022-09-03T07:03:57;36.70;25.20
51215;DHT22;41093;47.444;19.134;2022-09-03T07:06:29;37.50;24.40
51215;DHT22;41093;47.444;19.134;2022-09-03T07:08:55;37.60;24.80
51215;DHT22;41093;47.444;19.134;2022-09-03T07:11:23;36.90;25.40
51215;DHT22;41093;47.444;19.134;2022-09-03T07:13:52;36.70;25.60
51215;DHT22;41093;47.444;19.134;2022-09-03T07:16:20;36.50;26.20
51215;DHT22;41093;47.444;19.134;2022-09-03T07:18:47;36.40;26.10
51215;DHT22;41093;47.444;19.134;2022-09-03T07:21:18;36.60;24.80
51215;DHT22;41093;47.444;19.134;2022-09-03T07:23:45;37.20;24.80
51215;DHT22;41093;47.444;19.134;2022-09-03T07:26:13;38.70;23.00
51215;DHT22;41093;47.444;19.134;2022-09-03T07:28:41;37.40;24.00
51215;DHT22;41093;47.444;19.134;2022-09-03T07:31:14;36.90;25.00
51215;DHT22;41093;47.444;19.134;2022-09-03T07:33:41;38.10;23.70
51215;DHT22;41093;47.444;19.134;2022-09-03T07:36:10;37.90;23.80
51215;DHT22;41093;47.444;19.134;2022-09-03T07:38:36;38.50;23.90
51215;DHT22;41093;47.444;19.134;2022-09-03T07:41:05;38.40;23.60
51215;DHT22;41093;47.444;19.134;2022-09-03T07:43:37;38.00;24.00
51215;DHT22;41093;47.444;19.134;2022-09-03T07:46:09;37.90;23.10
51215;DHT22;41093;47.444;19.134;2022-09-03T07:48:41;38.40;22.80
51215;DHT22;41093;47.444;19.134;2022-09-03T07:51:08;36.90;24.10
51215;DHT22;41093;47.444;19.134;2022-09-03T07:53:34;37.30;23.60
51215;DHT22;41093;47.444;19.134;2022-09-03T07:56:05;38.50;23.50
51215;DHT22;41093;47.444;19.134;2022-09-03T07:58:33;38.60;23.20
51215;DHT22;41093;47.444;19.134;2022-09-03T08:01:16;37.70;23.40
51215;DHT22;41093;47.444;19.134;2022-09-03T08:03:44;37.50;23.40
51215;DHT22;41093;47.444;19.134;2022-09-03T08:06:10;38.50;23.30
51215;DHT22;41093;47.444;19.134;2022-09-03T08:08:37;38.50;22.50
51215;DHT22;41093;47.444;19.134;2022-09-03T08:13:53;38.60;22.60
51215;DHT22;41093;47.444;19.134;2022-09-03T08:16:19;38.80;22.60
51215;DHT22;41093;47.444;19.134;2022-09-03T08:18:45;39.40;22.20
51215;DHT22;41093;47.444;19.134;2022-09-03T08:21:14;40.20;21.50
51215;DHT22;41093;47.444;19.134;2022-09-03T08:23:43;40.30;20.90
51215;DHT22;41093;47.444;19.134;2022-09-03T08:26:10;40.10;20.90
51215;DHT22;41093;47.444;19.134;2022-09-03T08:28:37;39.90;21.40
51215;DHT22;41093;47.444;19.134;2022-09-03T08:31:14;40.00;21.50
51215;DHT22;41093;47.444;19.134;2022-09-03T08:33:45;40.20;20.70
51215;DHT22;41093;47.444;19.134;2022-09-03T08:36:12;40.90;19.60
51215;DHT22;41093;47.444;19.134;2022-09-03T08:38:40;39.40;21.80
51215;DHT22;41093;47.444;19.134;2022-09-03T08:49:12;40.80;20.20
51215;DHT22;41093;47.444;19.134;2022-09-03T08:51:40;40.40;20.80
51215;DHT22;41093;47.444;19.134;2022-09-03T08:54:08;40.00;21.40
51215;DHT22;41093;47.444;19.134;2022-09-03T08:56:38;40.80;21.00
51215;DHT22;41093;47.444;19.134;2022-09-03T08:59:05;40.60;21.00
51215;DHT22;41093;47.444;19.134;2022-09-03T09:01:54;40.00;21.30
51215;DHT22;41093;47.444;19.134;2022-09-03T09:07:35;40.50;21.90
51215;DHT22;41093;47.444;19.134;2022-09-03T09:10:11;40.30;21.20
51215;DHT22;41093;47.444;19.134;2022-09-03T09:12:44;40.30;21.20
51215;DHT22;41093;47.444;19.134;2022-09-03T09:18:02;40.60;20.90
51215;DHT22;41093;47.444;19.134;2022-09-03T09:20:49;40.50;20.70
51215;DHT22;41093;47.444;19.134;2022-09-03T09:23:36;40.90;21.40
51215;DHT22;41093;47.444;19.134;2022-09-03T09:26:08;40.20;20.80
51215;DHT22;41093;47.444;19.134;2022-09-03T09:28:36;39.40;22.20
51215;DHT22;41093;47.444;19.134;2022-09-03T09:31:05;39.50;21.20
51215;DHT22;41093;47.444;19.134;2022-09-03T09:33:33;39.10;21.80
51215;DHT22;41093;47.444;19.134;2022-09-03T09:36:10;39.70;21.80
51215;DHT22;41093;47.444;19.134;2022-09-03T09:38:39;39.20;21.50
51215;DHT22;41093;47.444;19.134;2022-09-03T09:41:11;39.50;22.30
51215;DHT22;41093;47.444;19.134;2022-09-03T09:43:37;39.70;21.00
51215;DHT22;41093;47.444;19.134;2022-09-03T09:46:15;39.90;20.60
51215;DHT22;41093;47.444;19.134;2022-09-03T09:48:50;39.90;21.40
51215;DHT22;41093;47.444;19.134;2022-09-03T09:51:22;40.40;21.00
51215;DHT22;41093;47.444;19.134;2022-09-03T09:54:02;40.20;21.40
51215;DHT22;41093;47.444;19.134;2022-09-03T09:56:29;40.60;21.60
51215;DHT22;41093;47.444;19.134;2022-09-03T09:59:06;40.30;20.40
51215;DHT22;41093;47.444;19.134;2022-09-03T10:01:33;40.10;20.90
51215;DHT22;41093;47.444;19.134;2022-09-03T10:04:23;40.60;20.60
51215;DHT22;41093;47.444;19.134;2022-09-03T10:06:55;39.10;22.30
51215;DHT22;41093;47.444;19.134;2022-09-03T10:09:26;38.40;23.60
51215;DHT22;41093;47.444;19.134;2022-09-03T10:12:35;39.10;22.20
51215;DHT22;41093;47.444;19.134;2022-09-03T10:15:21;39.40;21.90
51215;DHT22;41093;47.444;19.134;2022-09-03T10:18:01;39.10;22.60
51215;DHT22;41093;47.444;19.134;2022-09-03T10:20:47;39.80;21.80
51215;DHT22;41093;47.444;19.134;2022-09-03T10:23:26;39.00;21.80
51215;DHT22;41093;47.444;19.134;2022-09-03T10:28:26;38.60;22.80
51215;DHT22;41093;47.444;19.134;2022-09-03T10:33:25;38.00;22.60
51215;DHT22;41093;47.444;19.134;2022-09-03T10:36:10;38.60;21.80
51215;DHT22;41093;47.444;19.134;2022-09-03T10:38:38;38.40;22.90
51215;DHT22;41093;47.444;19.134;2022-09-03T10:46:26;38.50;23.10
51215;DHT22;41093;47.444;19.134;2022-09-03T10:49:09;37.70;23.00
51215;DHT22;41093;47.444;19.134;2022-09-03T10:52:08;37.90;24.40
51215;DHT22;41093;47.444;19.134;2022-09-03T11:00:05;37.60;23.20
51215;DHT22;41093;47.444;19.134;2022-09-03T11:02:58;37.90;22.00
51215;DHT22;41093;47.444;19.134;2022-09-03T11:05:36;36.60;23.40
51215;DHT22;41093;47.444;19.134;2022-09-03T11:08:24;35.30;25.20
51215;DHT22;41093;47.444;19.134;2022-09-03T11:11:05;34.00;27.10
51215;DHT22;41093;47.444;19.134;2022-09-03T11:13:43;32.90;28.00
51215;DHT22;41093;47.444;19.134;2022-09-03T11:16:19;31.90;30.60
51215;DHT22;41093;47.444;19.134;2022-09-03T11:18:52;31.20;29.40
51215;DHT22;41093;47.444;19.134;2022-09-03T11:21:22;29.80;32.30
51215;DHT22;41093;47.444;19.134;2022-09-03T11:33:20;29.40;32.30
51215;DHT22;41093;47.444;19.134;2022-09-03T11:35:55;29.20;33.30
51215;DHT22;41093;47.444;19.134;2022-09-03T11:38:21;29.00;31.80
51215;DHT22;41093;47.444;19.134;2022-09-03T11:41:14;28.70;32.40
51215;DHT22;41093;47.444;19.134;2022-09-03T11:43:48;27.80;34.20
51215;DHT22;41093;47.444;19.134;2022-09-03T11:48:54;28.30;33.00
51215;DHT22;41093;47.444;19.134;2022-09-03T11:54:00;28.30;33.20
51215;DHT22;41093;47.444;19.134;2022-09-03T11:56:28;28.30;33.50
51215;DHT22;41093;47.444;19.134;2022-09-03T11:59:18;28.30;33.80
51215;DHT22;41093;47.444;19.134;2022-09-03T12:01:52;27.90;33.80
51215;DHT22;41093;47.444;19.134;2022-09-03T12:04:23;27.90;32.00
51215;DHT22;41093;47.444;19.134;2022-09-03T12:07:24;27.70;32.70
51215;DHT22;41093;47.444;19.134;2022-09-03T12:18:10;26.20;36.50
51215;DHT22;41093;47.444;19.134;2022-09-03T12:21:08;26.20;36.50
51215;DHT22;41093;47.444;19.134;2022-09-03T12:23:42;26.50;37.30
51215;DHT22;41093;47.444;19.134;2022-09-03T12:26:13;26.80;35.50
51215;DHT22;41093;47.444;19.134;2022-09-03T12:28:42;27.10;35.40
51215;DHT22;41093;47.444;19.134;2022-09-03T12:33:47;27.60;33.90
51215;DHT22;41093;47.444;19.134;2022-09-03T12:36:13;27.50;32.20
51215;DHT22;41093;47.444;19.134;2022-09-03T12:38:39;27.60;34.20
51215;DHT22;41093;47.444;19.134;2022-09-03T12:41:28;27.60;32.90
51215;DHT22;41093;47.444;19.134;2022-09-03T12:43:57;27.70;33.70
51215;DHT22;41093;47.444;19.134;2022-09-03T12:46:29;27.40;30.90
51215;DHT22;41093;47.444;19.134;2022-09-03T12:51:49;27.00;32.50
51215;DHT22;41093;47.444;19.134;2022-09-03T12:54:16;27.00;33.10
51215;DHT22;41093;47.444;19.134;2022-09-03T12:56:52;26.70;33.50
51215;DHT22;41093;47.444;19.134;2022-09-03T12:59:20;26.80;36.50
51215;DHT22;41093;47.444;19.134;2022-09-03T13:01:53;27.20;35.80
51215;DHT22;41093;47.444;19.134;2022-09-03T13:04:24;27.30;35.50
51215;DHT22;41093;47.444;19.134;2022-09-03T13:09:46;27.10;35.10
51215;DHT22;41093;47.444;19.134;2022-09-03T13:12:31;27.20;33.50
51215;DHT22;41093;47.444;19.134;2022-09-03T13:15:05;27.20;34.60
51215;DHT22;41093;47.444;19.134;2022-09-03T13:20:47;26.90;35.00
51215;DHT22;41093;47.444;19.134;2022-09-03T13:29:38;26.50;35.70
51215;DHT22;41093;47.444;19.134;2022-09-03T13:32:22;26.40;35.40
51215;DHT22;41093;47.444;19.134;2022-09-03T13:34:55;26.60;36.90
51215;DHT22;41093;47.444;19.134;2022-09-03T13:39:57;26.60;37.00
51215;DHT22;41093;47.444;19.134;2022-09-03T13:42:34;26.60;36.80
51215;DHT22;41093;47.444;19.134;2022-09-03T13:45:12;26.40;35.80
51215;DHT22;41093;47.444;19.134;2022-09-03T13:50:51;26.40;35.90
51215;DHT22;41093;47.444;19.134;2022-09-03T13:53:29;26.20;37.70
51215;DHT22;41093;47.444;19.134;2022-09-03T13:56:03;26.00;36.60
51215;DHT22;41093;47.444;19.134;2022-09-03T13:58:43;25.60;36.80
51215;DHT22;41093;47.444;19.134;2022-09-03T14:01:21;25.40;37.10
51215;DHT22;41093;47.444;19.134;2022-09-03T14:03:52;25.50;38.60
51215;DHT22;41093;47.444;19.134;2022-09-03T14:06:38;25.60;38.20
51215;DHT22;41093;47.444;19.134;2022-09-03T14:09:14;25.80;38.40
51215;DHT22;41093;47.444;19.134;2022-09-03T14:20:45;25.90;38.50
51215;DHT22;41093;47.444;19.134;2022-09-03T14:23:08;25.90;37.40
51215;DHT22;41093;47.444;19.134;2022-09-03T14:25:35;25.80;36.60
51215;DHT22;41093;47.444;19.134;2022-09-03T14:28:28;25.70;38.10
51215;DHT22;41093;47.444;19.134;2022-09-03T14:34:12;25.50;37.60
51215;DHT22;41093;47.444;19.134;2022-09-03T14:36:49;25.40;37.40
51215;DHT22;41093;47.444;19.134;2022-09-03T14:39:46;25.30;37.80
51215;DHT22;41093;47.444;19.134;2022-09-03T14:45:17;25.20;39.20
51215;DHT22;41093;47.444;19.134;2022-09-03T14:56:21;25.30;38.40
51215;DHT22;41093;47.444;19.134;2022-09-03T14:59:04;25.20;38.30
51215;DHT22;41093;47.444;19.134;2022-09-03T15:01:34;25.10;38.30
51215;DHT22;41093;47.444;19.134;2022-09-03T15:09:33;24.90;39.10
51215;DHT22;41093;47.444;19.134;2022-09-03T15:14:56;24.90;39.80
51215;DHT22;41093;47.444;19.134;2022-09-03T15:20:49;25.00;38.90
51215;DHT22;41093;47.444;19.134;2022-09-03T15:34:31;24.70;40.50
51215;DHT22;41093;47.444;19.134;2022-09-03T15:37:01;24.60;41.10
51215;DHT22;41093;47.444;19.134;2022-09-03T15:39:37;24.50;40.90
51215;DHT22;41093;47.444;19.134;2022-09-03T15:42:22;24.50;41.40
51215;DHT22;41093;47.444;19.134;2022-09-03T15:44:53;24.30;40.80
51215;DHT22;41093;47.444;19.134;2022-09-03T15:47:46;24.30;40.70
51215;DHT22;41093;47.444;19.134;2022-09-03T15:50:33;24.20;41.30
51215;DHT22;41093;47.444;19.134;2022-09-03T15:53:28;24.10;42.40
51215;DHT22;41093;47.444;19.134;2022-09-03T16:07:18;23.80;43.00
51215;DHT22;41093;47.444;19.134;2022-09-03T16:15:21;23.50;43.10
51215;DHT22;41093;47.444;19.134;2022-09-03T16:18:05;23.50;43.40
51215;DHT22;41093;47.444;19.134;2022-09-03T16:20:40;23.40;43.20
51215;DHT22;41093;47.444;19.134;2022-09-03T16:23:22;23.30;43.50
51215;DHT22;41093;47.444;19.134;2022-09-03T16:25:52;23.20;43.90
51215;DHT22;41093;47.444;19.134;2022-09-03T16:28:37;23.10;44.60
51215;DHT22;41093;47.444;19.134;2022-09-03T16:34:22;23.00;44.20
51215;DHT22;41093;47.444;19.134;2022-09-03T16:39:52;22.90;44.70
51215;DHT22;41093;47.444;19.134;2022-09-03T16:45:16;22.70;45.10
51215;DHT22;41093;47.444;19.134;2022-09-03T16:48:16;22.60;45.50
51215;DHT22;41093;47.444;19.134;2022-09-03T16:50:55;22.60;45.80
51215;DHT22;41093;47.444;19.134;2022-09-03T16:56:36;22.30;46.60
51215;DHT22;41093;47.444;19.134;2022-09-03T17:02:20;21.90;47.40
51215;DHT22;41093;47.444;19.134;2022-09-03T17:10:42;21.50;49.20
51215;DHT22;41093;47.444;19.134;2022-09-03T17:16:28;21.20;49.80
51215;DHT22;41093;47.444;19.134;2022-09-03T17:24:54;20.70;52.30
51215;DHT22;41093;47.444;19.134;2022-09-03T17:28:00;20.60;54.50
51215;DHT22;41093;47.444;19.134;2022-09-03T17:30:41;20.40;54.30
51215;DHT22;41093;47.444;19.134;2022-09-03T17:36:10;20.10;55.20
51215;DHT22;41093;47.444;19.134;2022-09-03T17:41:27;19.80;56.50
51215;DHT22;41093;47.444;19.134;2022-09-03T17:50:13;19.40;58.30
51215;DHT22;41093;47.444;19.134;2022-09-03T17:52:42;19.30;58.80
51215;DHT22;41093;47.444;19.134;2022-09-03T17:57:51;19.00;59.30
51215;DHT22;41093;47.444;19.134;2022-09-03T18:00:37;18.90;59.90
51215;DHT22;41093;47.444;19.134;2022-09-03T18:06:00;18.80;61.60
51215;DHT22;41093;47.444;19.134;2022-09-03T18:11:37;18.60;61.40
51215;DHT22;41093;47.444;19.134;2022-09-03T18:14:29;18.50;62.10
51215;DHT22;41093;47.444;19.134;2022-09-03T18:19:58;18.40;62.10
51215;DHT22;41093;47.444;19.134;2022-09-03T18:22:51;18.30;62.80
51215;DHT22;41093;47.444;19.134;2022-09-03T18:25:39;18.30;65.20
51215;DHT22;41093;47.444;19.134;2022-09-03T18:28:50;18.20;64.80
51215;DHT22;41093;47.444;19.134;2022-09-03T18:31:35;18.10;65.20
51215;DHT22;41093;47.444;19.134;2022-09-03T18:34:30;18.00;65.50
51215;DHT22;41093;47.444;19.134;2022-09-03T18:37:26;17.90;64.90
51215;DHT22;41093;47.444;19.134;2022-09-03T18:40:30;17.90;64.70
51215;DHT22;41093;47.444;19.134;2022-09-03T18:46:55;17.80;65.20
51215;DHT22;41093;47.444;19.134;2022-09-03T18:53:04;17.60;68.10
51215;DHT22;41093;47.444;19.134;2022-09-03T18:56:24;17.50;68.00
51215;DHT22;41093;47.444;19.134;2022-09-03T18:59:49;17.40;68.30
51215;DHT22;41093;47.444;19.134;2022-09-03T19:08:46;17.30;69.00
51215;DHT22;41093;47.444;19.134;2022-09-03T19:11:43;17.20;68.40
51215;DHT22;41093;47.444;19.134;2022-09-03T19:14:38;17.20;69.80
51215;DHT22;41093;47.444;19.134;2022-09-03T19:17:47;17.10;68.70
51215;DHT22;41093;47.444;19.134;2022-09-03T19:20:38;17.10;68.90
51215;DHT22;41093;47.444;19.134;2022-09-03T19:23:24;17.00;69.30
51215;DHT22;41093;47.444;19.134;2022-09-03T19:33:12;16.90;70.00
51215;DHT22;41093;47.444;19.134;2022-09-03T19:42:27;17.10;68.80
51215;DHT22;41093;47.444;19.134;2022-09-03T19:49:06;16.90;70.00
51215;DHT22;41093;47.444;19.134;2022-09-03T19:52:03;17.00;69.00
51215;DHT22;41093;47.444;19.134;2022-09-03T19:54:56;16.90;69.90
51215;DHT22;41093;47.444;19.134;2022-09-03T19:57:43;16.90;70.60
51215;DHT22;41093;47.444;19.134;2022-09-03T20:00:30;16.80;70.60
51215;DHT22;41093;47.444;19.134;2022-09-03T20:03:15;16.80;71.40
51215;DHT22;41093;47.444;19.134;2022-09-03T20:06:02;16.70;71.60
51215;DHT22;41093;47.444;19.134;2022-09-03T20:08:49;16.60;71.00
51215;DHT22;41093;47.444;19.134;2022-09-03T20:11:34;16.50;71.00
51215;DHT22;41093;47.444;19.134;2022-09-03T20:14:02;16.40;71.90
51215;DHT22;41093;47.444;19.134;2022-09-03T20:17:10;16.50;72.70
51215;DHT22;41093;47.444;19.134;2022-09-03T20:25:43;16.40;72.00
51215;DHT22;41093;47.444;19.134;2022-09-03T20:31:21;16.30;73.30
51215;DHT22;41093;47.444;19.134;2022-09-03T20:48:04;15.90;74.20
51215;DHT22;41093;47.444;19.134;2022-09-03T21:02:30;15.80;74.90
51215;DHT22;41093;47.444;19.134;2022-09-03T21:07:59;15.80;75.80
51215;DHT22;41093;47.444;19.134;2022-09-03T21:10:30;15.70;75.30
51215;DHT22;41093;47.444;19.134;2022-09-03T21:15:39;15.60;75.60
51215;DHT22;41093;47.444;19.134;2022-09-03T21:18:40;15.60;76.10